Time;durP1;ratioP1;P1;durP2;ratioP2;P2;SDS_P1;SDS_P2;PMS_P1;PMS_P2;Temp;Humidity;BMP_temperature;BMP_pressure;BME280_temperature;BME280_humidity;BME280_pressure;Samples;Min_cycle;Max_cycle;Signal;HPM_P1;HPM_P2
2022/11/09 00:03:58;;;;;;;;;;;;;;;6.80;100.00;95442.34;10493183;28;1953;-68
2022/11/09 00:09:01;;;;;;;;;;;;;;;6.76;100.00;95441.28;10491537;28;2013;-67
2022/11/09 00:14:10;;;;;;;;;;;;;;;6.71;100.00;95444.72;10490598;28;2244;-69
2022/11/09 00:19:13;;;;;;;;;;;;;;;6.62;100.00;95451.59;10496106;28;1951;-68
2022/11/09 00:24:16;;;;;;;;;;;;;;;6.51;100.00;95447.22;10491501;28;2088;-69
2022/11/09 00:29:19;;;;;;;;;;;;;;;6.56;100.00;95441.94;10490119;28;1956;-67
2022/11/09 00:34:23;;;;;;;;;;;;;;;6.56;100.00;95443.81;10489274;28;2140;-67
2022/11/09 00:39:27;;;;;;;;;;;;;;;6.62;100.00;95437.44;10490841;28;1941;-67
2022/11/09 00:44:30;;;;;;;;;;;;;;;6.64;100.00;95436.13;10488908;28;1992;-68
2022/11/09 00:49:33;;;;;;;;;;;;;;;6.68;100.00;95429.22;10488402;28;2161;-68
2022/11/09 00:54:40;;;;;;;;;;;;;;;6.63;100.00;95425.69;10489570;28;1972;-67
2022/11/09 00:59:43;;;;;;;;;;;;;;;6.61;100.00;95425.13;10490127;28;2057;-67
2022/11/09 01:04:47;;;;;;;;;;;;;;;6.58;100.00;95422.97;10488178;28;2026;-67
2022/11/09 01:09:50;;;;;;;;;;;;;;;6.54;100.00;95432.56;10491024;28;2014;-67
2022/11/09 01:14:54;;;;;;;;;;;;;;;6.57;100.00;95430.19;10492340;28;1989;-69
2022/11/09 01:19:57;;;;;;;;;;;;;;;6.58;100.00;95423.78;10494131;28;2030;-66
2022/11/09 01:25:00;;;;;;;;;;;;;;;6.57;100.00;95426.72;10488852;28;2007;-67
2022/11/09 01:30:04;;;;;;;;;;;;;;;6.44;100.00;95434.09;10488120;28;2115;-67
2022/11/09 01:35:07;;;;;;;;;;;;;;;6.41;100.00;95423.13;10486409;28;2081;-67
2022/11/09 01:40:10;;;;;;;;;;;;;;;6.29;100.00;95417.94;10486295;28;2015;-67
2022/11/09 01:45:13;;;;;;;;;;;;;;;6.26;100.00;95423.00;10486325;28;2070;-65
2022/11/09 01:50:17;;;;;;;;;;;;;;;6.14;100.00;95415.16;10486566;28;1980;-66
2022/11/09 01:55:20;;;;;;;;;;;;;;;6.03;100.00;95421.47;10491687;28;2071;-66
2022/11/09 02:00:23;;;;;;;;;;;;;;;6.00;100.00;95416.66;10486585;28;2111;-67
2022/11/09 02:05:26;;;;;;;;;;;;;;;6.01;100.00;95423.59;10484970;28;2183;-66
2022/11/09 02:10:30;;;;;;;;;;;;;;;5.79;100.00;95413.75;10487863;28;2169;-66
2022/11/09 02:15:34;;;;;;;;;;;;;;;5.77;100.00;95413.19;10486071;28;2113;-66
2022/11/09 02:20:37;;;;;;;;;;;;;;;5.77;100.00;95413.19;10486122;28;2385;-67
2022/11/09 02:25:40;;;;;;;;;;;;;;;5.75;100.00;95420.66;10484055;28;2177;-66
2022/11/09 02:30:43;;;;;;;;;;;;;;;5.70;100.00;95402.72;10485516;28;2015;-66
2022/11/09 02:35:47;;;;;;;;;;;;;;;5.67;100.00;95418.44;10484993;28;2048;-66
2022/11/09 02:40:50;;;;;;;;;;;;;;;5.64;100.00;95408.25;10481831;28;2045;-67
2022/11/09 02:45:54;;;;;;;;;;;;;;;5.59;100.00;95405.53;10485170;28;2128;-69
2022/11/09 02:50:57;;;;;;;;;;;;;;;5.58;100.00;95414.59;10486222;28;2059;-68
2022/11/09 02:56:01;;;;;;;;;;;;;;;5.55;100.00;95407.09;10496962;28;2019;-69
2022/11/09 03:01:05;;;;;;;;;;;;;;;5.56;100.00;95411.38;10493632;28;2084;-67
2022/11/09 03:06:08;;;;;;;;;;;;;;;5.55;100.00;95420.44;10492839;28;2064;-68
2022/11/09 03:11:12;;;;;;;;;;;;;;;5.50;100.00;95417.72;10494274;28;2185;-68
2022/11/09 03:16:15;;;;;;;;;;;;;;;5.50;100.00;95413.19;10495022;28;2014;-68
2022/11/09 03:21:21;;;;;;;;;;;;;;;5.48;100.00;95403.84;10496714;28;2112;-69
2022/11/09 03:26:25;;;;;;;;;;;;;;;5.48;100.00;95412.63;10493305;28;2122;-69
2022/11/09 03:31:28;;;;;;;;;;;;;;;5.46;100.00;95403.25;10494847;28;2399;-68
2022/11/09 03:36:31;;;;;;;;;;;;;;;5.53;100.00;95409.19;10494509;28;2094;-68
2022/11/09 03:41:35;;;;;;;;;;;;;;;5.51;100.00;95408.66;10492010;28;2021;-67
2022/11/09 03:46:45;;;;;;;;;;;;;;;5.55;100.00;95409.78;10494944;28;1979;-67
2022/11/09 03:51:49;;;;;;;;;;;;;;;5.60;100.00;95407.16;10498105;28;2060;-66
2022/11/09 03:56:52;;;;;;;;;;;;;;;5.58;100.00;95406.59;10500464;28;1987;-68
2022/11/09 04:01:56;;;;;;;;;;;;;;;5.67;100.00;95408.56;10494471;28;2077;-67
2022/11/09 04:06:59;;;;;;;;;;;;;;;5.80;100.00;95403.91;10497502;28;2120;-66
2022/11/09 04:12:02;;;;;;;;;;;;;;;5.84;100.00;95397.78;10494468;28;2032;-67
2022/11/09 04:17:05;;;;;;;;;;;;;;;5.88;100.00;95398.91;10495322;28;2062;-67
2022/11/09 04:22:09;;;;;;;;;;;;;;;5.91;100.00;95393.06;10526387;27;2172;-68
2022/11/09 04:27:12;;;;;;;;;;;;;;;5.90;100.00;95393.31;10491987;28;2000;-67
2022/11/09 04:32:15;;;;;;;;;;;;;;;5.99;100.00;95393.69;10492465;28;2067;-68
2022/11/09 04:37:18;;;;;;;;;;;;;;;6.09;100.00;95399.09;10490516;28;2063;-68
2022/11/09 04:42:21;;;;;;;;;;;;;;;6.14;100.00;95401.81;10489886;28;2030;-67
2022/11/09 04:47:25;;;;;;;;;;;;;;;6.26;100.00;95399.78;10489725;28;2078;-67
2022/11/09 04:52:28;;;;;;;;;;;;;;;6.31;100.00;95401.69;10492128;28;2134;-66
2022/11/09 04:57:31;;;;;;;;;;;;;;;6.37;100.00;95398.00;10488902;28;2252;-68
2022/11/09 05:02:35;;;;;;;;;;;;;;;6.39;100.00;95403.88;10490774;28;2011;-67
2022/11/09 05:07:38;;;;;;;;;;;;;;;6.47;100.00;95404.22;10491543;28;2149;-68
2022/11/09 05:12:43;;;;;;;;;;;;;;;6.43;100.00;95400.47;10489069;28;2052;-69
2022/11/09 05:17:48;;;;;;;;;;;;;;;6.57;100.00;95408.03;10488204;28;2089;-76
2022/11/09 05:28:14;;;;;;;;;;;;;;;6.65;100.00;95412.88;10488439;28;2010;-77
2022/11/09 05:33:17;;;;;;;;;;;;;;;6.82;100.00;95402.03;10487807;28;2212;-80
2022/11/09 05:38:21;;;;;;;;;;;;;;;6.85;100.00;95396.97;10487428;28;2100;-79
2022/11/09 05:43:24;;;;;;;;;;;;;;;7.03;100.00;95393.84;10487740;28;1994;-77
2022/11/09 05:48:27;;;;;;;;;;;;;;;7.03;100.00;95391.19;10485225;28;2016;-77
2022/11/09 05:53:30;;;;;;;;;;;;;;;6.94;100.00;95397.28;10487555;28;2079;-77
2022/11/09 05:58:35;;;;;;;;;;;;;;;7.03;100.00;95414.44;10492482;28;2071;-76
2022/11/09 06:03:39;;;;;;;;;;;;;;;7.06;100.00;95411.22;10487376;28;2039;-77
2022/11/09 06:08:42;;;;;;;;;;;;;;;7.02;100.00;95423.53;10486224;28;2028;-77
2022/11/09 06:13:46;;;;;;;;;;;;;;;6.93;100.00;95428.53;10485998;28;2118;-77
2022/11/09 06:18:49;;;;;;;;;;;;;;;6.88;100.00;95436.53;10489189;28;2072;-77
2022/11/09 06:23:53;;;;;;;;;;;;;;;6.91;100.00;95448.56;10490542;28;2111;-77
2022/11/09 06:28:56;;;;;;;;;;;;;;;7.13;100.00;95467.16;10489438;28;2046;-78
2022/11/09 06:33:59;;;;;;;;;;;7.90;99.90;;;7.23;100.00;95468.00;10494583;28;2200;-77
2022/11/09 06:39:01;;;;;;;;;;;8.10;99.90;;;7.30;100.00;95483.78;10498225;28;2195;-76
2022/11/09 06:44:05;;;;;;;;;;;8.20;99.90;;;7.61;100.00;95505.34;10496138;28;1960;-75
2022/11/09 06:49:08;;;;;;;;;;;8.40;99.90;;;7.82;100.00;95512.38;10495862;28;2028;-77
2022/11/09 06:54:10;;;;;;;;;;;8.60;99.90;;;7.94;100.00;95541.59;10505672;28;2071;-77
2022/11/09 06:59:13;;;;;;;;;;;8.80;99.90;;;8.00;100.00;95552.06;10502445;28;2067;-78
2022/11/09 07:04:16;;;;;;;;;;;8.90;99.90;;;7.92;100.00;95565.94;10497558;28;2024;-77
2022/11/09 07:09:19;;;;;;;;;;;8.90;99.90;;;7.92;100.00;95565.94;10499777;28;1992;-77
2022/11/09 07:14:21;;;;;;;;;;;9.40;99.90;;;7.84;100.00;95569.13;10494699;28;1970;-77
2022/11/09 07:19:24;;;;;;;;;;;8.90;99.90;;;7.73;100.00;95559.44;10496926;28;2010;-78
2022/11/09 07:24:27;;;;;;;;;;;8.80;99.90;;;7.77;100.00;95568.56;10499097;28;2120;-78
2022/11/09 07:29:30;;;;;;;;;;;8.80;99.90;;;7.84;100.00;95563.78;10498124;28;2249;-77
2022/11/09 07:34:33;;;;;;;;;;;8.80;99.90;;;7.93;100.00;95562.19;10493871;28;2047;-77
2022/11/09 07:39:36;;;;;;;;;;;8.90;99.90;;;8.03;100.00;95556.09;10494821;28;1997;-78
2022/11/09 07:44:38;;;;;;;;;;;8.90;99.90;;;8.20;100.00;95550.50;10494255;28;1992;-80
2022/11/09 07:49:41;;;;;;;;;;;9.20;99.90;;;8.30;100.00;95547.88;10495541;28;2043;-77
2022/11/09 07:54:44;;;;;;;;;;;9.20;99.90;;;8.44;100.00;95551.66;10495686;28;2023;-78
2022/11/09 07:59:53;;;;;;;;;;;9.30;99.90;;;8.57;100.00;95551.16;10494426;28;2011;-77
2022/11/09 08:04:56;;;;;;;;;;;9.40;99.90;;;8.70;100.00;95554.38;10492773;28;2070;-78
2022/11/09 08:09:59;;;;;;;;;;;9.50;99.90;;;8.90;100.00;95562.44;10494044;28;2127;-77
2022/11/09 08:15:01;;;;;;;;;;;9.60;99.90;;;9.14;100.00;95560.03;10491371;28;2220;-77
2022/11/09 08:20:04;;;;;;;;;;;9.80;99.90;;;9.53;100.00;95565.59;10493746;28;2209;-77
2022/11/09 08:25:07;;;;;;;;;;;10.10;99.90;;;10.16;96.26;95565.94;10490444;28;2192;-77
2022/11/09 08:30:11;;;;;;;;;;;10.50;99.90;;;10.58;95.92;95567.34;10490427;28;2113;-77
2022/11/09 08:35:16;;;;;;;;;;;11.00;99.90;;;10.97;89.40;95569.25;10490073;28;2060;-78
2022/11/09 08:40:20;;;;;;;;;;;;;;;11.51;84.54;95574.41;10490402;28;2064;-77
2022/11/09 08:45:22;;;;;;;;;;;13.00;99.90;;;11.80;80.83;95581.69;10490514;28;2097;-78
2022/11/09 08:50:25;;;;;;;;;;;;;;;12.22;79.24;95583.66;10491213;28;2087;-78
2022/11/09 08:55:29;;;;;;;;;;;12.60;99.90;;;12.38;76.18;95585.06;10491670;28;2039;-78
2022/11/09 09:00:31;;;;;;;;;;;12.70;99.90;;;12.44;77.08;95597.38;10490849;28;2044;-78
2022/11/09 09:05:34;;;;;;;;;;;12.90;99.90;;;12.53;72.40;95594.03;10488331;28;1973;-78
2022/11/09 09:10:37;;;;;;;;;;;13.10;99.90;;;12.74;71.37;95583.78;10488430;28;1983;-78
2022/11/09 09:15:40;;;;;;;;;;;13.20;99.90;;;12.81;72.80;95584.22;10490811;28;1976;-77
2022/11/09 09:20:42;;;;;;;;;;;13.30;99.90;;;13.06;71.28;95591.94;10491813;28;2106;-78
2022/11/09 09:25:45;;;;;;;;;;;13.50;99.90;;;13.13;73.41;95599.66;10489763;28;2045;-78
2022/11/09 09:30:48;;;;;;;;;;;13.60;99.90;;;13.24;73.61;95607.34;10492305;28;2059;-77
2022/11/09 09:35:51;;;;;;;;;;;13.70;99.90;;;13.65;74.26;95593.16;10489899;28;2245;-77
2022/11/09 09:40:54;;;;;;;;;;;;;;;14.03;74.33;95596.50;10490755;28;2062;-77
2022/11/09 09:45:57;;;;;;;;;;;14.40;99.90;;;14.24;73.48;95593.41;10489804;28;2043;-77
2022/11/09 09:50:59;;;;;;;;;;;14.50;99.90;;;14.29;72.89;95593.28;10489776;28;2101;-79
2022/11/09 09:56:03;;;;;;;;;;;;;;;14.39;73.88;95601.22;10495314;28;2111;-77
2022/11/09 10:01:06;;;;;;;;;;;;;;;14.12;76.67;95595.78;10490530;28;2003;-78
2022/11/09 10:06:09;;;;;;;;;;;;;;;14.34;76.00;95591.28;10498123;28;2253;-77
2022/11/09 10:11:12;;;;;;;;;;;;;;;14.56;76.83;95598.69;10497698;28;2249;-78
2022/11/09 10:16:16;;;;;;;;;;;;;;;15.04;72.93;95597.41;10498919;28;2154;-78
2022/11/09 10:21:19;;;;;;;;;;;;;;;15.16;71.65;95599.56;10498124;28;2119;-76
2022/11/09 10:26:22;;;;;;;;;;;;;;;15.37;71.78;95595.25;10497448;28;2076;-79
2022/11/09 10:31:26;;;;;;;;;;;;;;;15.30;70.42;95592.19;10496173;28;2064;-79
2022/11/09 10:36:30;;;;;;;;;;;;;;;15.46;71.37;95574.47;10498036;28;2040;-80
2022/11/09 10:41:33;;;;;;;;;;;;;;;15.19;70.77;95571.88;10507836;28;2135;-78
2022/11/09 10:46:36;;;;;;;;;;;;;;;15.03;72.35;95566.03;10504516;28;2208;-79
2022/11/09 10:51:39;;;;;;;;;;;;;;;15.17;73.56;95565.97;10502164;28;2260;-78
2022/11/09 10:56:43;;;;;;;;;;;;;;;14.92;73.29;95543.81;10498219;28;2087;-79
2022/11/09 11:02:06;;;;;;;;;;;;;;;15.04;71.45;95546.78;10499801;28;2143;-79
2022/11/09 11:07:09;;;;;;;;;;;;;;;15.01;73.33;95552.78;10504761;28;2098;-78
2022/11/09 11:12:12;;;;;;;;;;;;;;;15.07;72.21;95543.44;10503496;28;1997;-79
2022/11/09 11:17:16;;;;;;;;;;;;;;;15.31;69.48;95540.41;10495483;28;1993;-78
2022/11/09 11:22:21;;;;;;;;;;;;;;;15.60;69.17;95526.41;10496406;28;1989;-77
2022/11/09 11:27:25;;;;;;;;;;;;;;;15.94;67.61;95520.38;10495680;28;2003;-79
2022/11/09 11:32:28;;;;;;;;;;;;;;;16.37;63.98;95521.63;10495177;28;2084;-76
2022/11/09 11:37:34;;;;;;;;;;;;;;;16.36;65.26;95517.31;10491997;28;2155;-76
2022/11/09 11:42:37;;;;;;;;;;;;;;;16.47;64.89;95515.88;10491678;28;2036;-77
2022/11/09 11:47:40;;;;;;;;;;;;;;;16.52;65.87;95518.44;10493380;28;1985;-78
2022/11/09 11:52:43;;;;;;;;;;;;;;;16.73;63.52;95513.22;10492655;28;2177;-77
2022/11/09 11:57:49;;;;;;;;;;;;;;;16.56;65.30;95513.19;10496031;28;2117;-75
2022/11/09 12:02:53;;;;;;;;;;;;;;;16.51;66.82;95500.56;10489977;28;2062;-77
2022/11/09 12:07:57;;;;;;;;;;;;;;;16.73;66.30;95497.75;10492052;28;2072;-77
2022/11/09 12:13:00;;;;;;;;;;;;;;;16.89;66.71;95499.97;10489424;28;2210;-78
2022/11/09 12:18:03;;;;;;;;;;;;;;;17.14;64.77;95491.00;10490444;28;2243;-78
2022/11/09 12:23:07;;;;;;;;;;;;;;;17.32;64.53;95490.97;10490593;28;2000;-78
2022/11/09 12:28:10;;;;;;;;;;;;;;;17.38;63.73;95485.06;10490820;28;1975;-77
2022/11/09 12:33:13;;;;;;;;;;;;;;;17.36;63.99;95481.03;10489482;28;2042;-78
2022/11/09 12:38:16;;;;;;;;;;;;;;;17.36;63.60;95475.59;10506594;28;2177;-76
2022/11/09 12:43:20;;;;;;;;;;;;;;;16.85;69.27;95478.09;10488190;28;2048;-77
2022/11/09 12:48:23;;;;;;;;;;;;;;;16.73;72.02;95476.03;10489392;28;1989;-76
2022/11/09 12:53:26;;;;;;;;;;;;;;;16.55;75.29;95468.97;10494623;28;2216;-77
2022/11/09 12:58:30;;;;;;;;;;;;;;;16.43;77.52;95469.59;10490393;28;2105;-79
2022/11/09 13:03:33;;;;;;;;;;;;;;;16.61;76.58;95465.00;10487532;28;2013;-76
2022/11/09 13:08:37;;;;;;;;;;;;;;;16.73;75.63;95462.47;10487313;28;2103;-77
2022/11/09 13:13:40;;;;;;;;;;;;;;;16.65;76.89;95467.84;10486183;28;2036;-77
2022/11/09 13:18:43;;;;;;;;;;;;;;;16.71;77.19;95456.53;10487069;28;2275;-78
2022/11/09 13:23:47;;;;;;;;;;;;;;;16.72;77.74;95449.19;10488152;28;2121;-76
2022/11/09 13:29:11;;;;;;;;;;;;;;;16.77;79.44;95453.66;10490751;28;2072;-78
2022/11/09 13:34:14;;;;;;;;;;;;;;;16.65;82.17;95454.28;10486275;28;2029;-76
2022/11/09 13:39:17;;;;;;;;;;;;;;;16.44;83.23;95456.84;10487707;28;2017;-78
2022/11/09 13:44:21;;;;;;;;;;;;;;;16.02;85.81;95445.59;10489684;28;2067;-77
2022/11/09 13:49:24;;;;;;;;;;;;;;;16.19;85.67;95455.69;10488556;28;2060;-78
2022/11/09 13:54:27;;;;;;;;;;;;;;;16.24;86.75;95452.81;10495938;28;2036;-77
2022/11/09 13:59:31;;;;;;;;;;;;;;;16.17;87.55;95456.00;10488958;28;2021;-76
2022/11/09 14:04:34;;;;;;;;;;;;;;;15.98;87.37;95458.19;10487762;28;2248;-77
2022/11/09 14:09:41;;;;;;;;;;;;;;;16.11;85.56;95459.97;10487701;28;2008;-78
2022/11/09 14:14:45;;;;;;;;;;;;;;;15.87;85.76;95459.59;10491317;28;1978;-76
2022/11/09 14:19:48;;;;;;;;;;;;;;;15.79;87.36;95471.22;10492611;28;2089;-76
2022/11/09 14:24:52;;;;;;;;;;;;;;;15.88;87.98;95469.31;10492749;28;2032;-77
2022/11/09 14:29:55;;;;;;;;;;;;;;;15.63;88.94;95471.63;10496725;28;2033;-77
2022/11/09 14:34:58;;;;;;;;;;;;;;;15.55;88.61;95472.38;10488856;28;2160;-77
2022/11/09 14:40:02;;;;;;;;;;;;;;;15.31;90.72;95474.63;10488850;28;2048;-74
2022/11/09 14:45:10;;;;;;;;;;;;;;;15.36;89.74;95478.00;10490194;28;2083;-75
2022/11/09 14:50:13;;;;;;;;;;;;;;;15.28;90.11;95481.47;10495438;28;2077;-75
2022/11/09 14:55:16;;;;;;;;;;;;;;;15.17;91.05;95479.34;10502970;28;1982;-76
2022/11/09 15:00:19;;;;;;;;;;;;;;;15.02;92.45;95477.81;10494814;28;2036;-76
2022/11/09 15:05:26;;;;;;;;;;;;;;;14.89;93.63;95487.59;10497362;28;2086;-77
2022/11/09 15:10:31;;;;;;;;;;;;;;;14.60;95.42;95480.69;10495280;28;2134;-76
2022/11/09 15:15:37;;;;;;;;;;;;;;;14.51;96.80;95484.44;10495310;28;2083;-75
2022/11/09 15:20:40;;;;;;;;;;;;;;;14.42;98.77;95491.63;10496272;28;1978;-75
2022/11/09 15:25:44;;;;;;;;;;;;;;;14.10;100.00;95481.78;10493456;28;2028;-75
2022/11/09 15:30:48;;;;;;;;;;;;;;;13.90;100.00;95491.91;10496166;28;2057;-75
2022/11/09 15:35:51;;;;;;;;;;;;;;;13.61;100.00;95494.09;10495155;28;2096;-75
2022/11/09 15:40:55;;;;;;;;;;;;;;;13.51;100.00;95492.41;10493794;28;2034;-74
2022/11/09 15:45:58;;;;;;;;;;;;;;;13.52;100.00;95491.31;10493689;28;2117;-76
2022/11/09 15:51:01;;;;;;;;;;;;;;;13.36;100.00;95496.19;10492545;28;2087;-76
2022/11/09 15:56:04;;;;;;;;;;;;;;;13.37;100.00;95500.50;10498017;28;2049;-75
2022/11/09 16:01:08;;;;;;;;;;;;;;;13.24;100.00;95512.88;10491542;28;2205;-75
2022/11/09 16:06:12;;;;;;;;;;;;;;;13.18;100.00;95515.91;10492468;28;2052;-76
2022/11/09 16:11:16;;;;;;;;;;;;;;;13.11;100.00;95523.59;10493415;28;2117;-74
2022/11/09 16:16:20;;;;;;;;;;;;;;;13.12;100.00;95525.19;10490153;28;2126;-75
2022/11/09 16:21:23;;;;;;;;;;;;;;;13.06;100.00;95529.06;10494322;28;2049;-75
2022/11/09 16:26:26;;;;;;;;;;;;;;;13.05;100.00;95546.38;10490343;28;2370;-74
2022/11/09 16:31:30;;;;;;;;;;;;;;;13.01;100.00;95548.03;10492172;28;2160;-76
2022/11/09 16:36:53;;;;;;;;;;;;;;;13.04;100.00;95560.94;10492542;28;2173;-76
2022/11/09 16:42:00;;;;;;;;;;;;;;;12.80;100.00;95559.16;10491567;28;2040;-75
2022/11/09 16:47:10;;;;;;;;;;;;;;;13.03;100.00;95567.41;10490207;28;2004;-76
2022/11/09 16:52:15;;;;;;;;;;;;;;;12.93;100.00;95577.28;10498591;28;2064;-74
2022/11/09 16:57:18;;;;;;;;;;;;;;;12.98;100.00;95590.72;10495031;28;2084;-76
2022/11/09 17:02:21;;;;;;;;;;;;;;;12.99;100.00;95586.13;10488344;28;1983;-76
2022/11/09 17:07:25;;;;;;;;;;;;;;;13.12;100.00;95601.56;10487431;28;1992;-76
2022/11/09 17:12:28;;;;;;;;;;;;;;;13.05;100.00;95605.72;10488472;28;2271;-75
2022/11/09 17:17:32;;;;;;;;;;;;;;;13.11;100.00;95616.16;10487574;28;2085;-74
2022/11/09 17:22:35;;;;;;;;;;;;;;;13.05;100.00;95632.72;10493073;28;2028;-74
2022/11/09 17:27:45;;;;;;;;;;;;;;;12.95;100.00;95639.84;10488084;28;1995;-75
2022/11/09 17:32:49;;;;;;;;;;;;;;;12.71;100.00;95660.66;10488710;28;2135;-74
2022/11/09 17:37:52;;;;;;;;;;;;;;;12.54;100.00;95665.75;10488927;28;2574;-75
2022/11/09 17:42:56;;;;;;;;;;;;;;;12.27;100.00;95674.41;10489481;28;2001;-75
2022/11/09 17:48:00;;;;;;;;;;;;;;;11.96;100.00;95680.13;10487113;28;2037;-72
2022/11/09 17:53:03;;;;;;;;;;;;;;;11.79;100.00;95682.41;10488925;28;2072;-77
2022/11/09 17:58:06;;;;;;;;;;;;;;;11.53;100.00;95690.69;10489696;28;2007;-72
2022/11/09 18:03:10;;;;;;;;;;;;;;;11.45;100.00;95704.78;10486369;28;2036;-73
2022/11/09 18:08:13;;;;;;;;;;;;;;;11.32;100.00;95711.59;10490594;28;2263;-74
2022/11/09 18:13:16;;;;;;;;;;;;;;;11.16;100.00;95718.13;10489841;28;2016;-72
2022/11/09 18:18:20;;;;;;;;;;;;;;;11.15;100.00;95716.53;10484914;28;2012;-73
2022/11/09 18:23:24;;;;;;;;;;;;;;;11.03;100.00;95727.63;10490008;28;2044;-72
2022/11/09 18:28:28;;;;;;;;;;;;;;;11.01;100.00;95729.78;10494016;28;2274;-76
2022/11/09 18:33:32;;;;;;;;;;;;;;;10.79;100.00;95730.16;10492871;28;2081;-74
2022/11/09 18:38:36;;;;;;;;;;;;;;;10.77;100.00;95732.31;10496897;28;2061;-74
2022/11/09 18:43:39;;;;;;;;;;;;;;;10.74;100.00;95746.28;10495697;28;2109;-73
2022/11/09 18:48:42;;;;;;;;;;;;;;;10.78;100.00;95743.88;10498668;28;2077;-73
2022/11/09 18:53:49;;;;;;;;;;;;;;;10.76;100.00;95752.22;10496482;28;2046;-73
2022/11/09 18:58:52;;;;;;;;;;;;;;;10.78;100.00;95742.00;10496545;28;2062;-72
2022/11/09 19:03:57;;;;;;;;;;;;;;;10.80;100.00;95747.09;10496553;28;2243;-72
2022/11/09 19:14:28;;;;;;;;;;;;;;;10.75;100.00;95761.38;10479707;28;2076;-73
2022/11/09 19:19:31;;;;;;;;;;;;;;;10.77;100.00;95764.59;10499907;28;2077;-76
2022/11/09 19:24:34;;;;;;;;;;;;;;;10.70;100.00;95779.41;10495495;28;1987;-75
2022/11/09 19:29:38;;;;;;;;;;;;;;;10.64;100.00;95785.88;10499769;28;2078;-73
2022/11/09 19:34:42;;;;;;;;;;;;;;;10.61;100.00;95787.19;10494651;28;2044;-74
2022/11/09 19:39:46;;;;;;;;;;;;;;;10.52;100.00;95802.28;10491348;28;1985;-72
2022/11/09 19:44:49;;;;;;;;;;;;;;;10.54;100.00;95798.25;10493157;28;2177;-73
2022/11/09 19:49:59;;;;;;;;;;;;;;;10.52;100.00;95799.59;10533885;27;2139;-74
2022/11/09 19:55:05;;;;;;;;;;;;;;;10.52;100.00;95794.22;10495908;28;2083;-75
2022/11/09 20:00:08;;;;;;;;;;;;;;;10.44;100.00;95800.97;10494648;28;2275;-74
2022/11/09 20:05:12;;;;;;;;;;;;;;;10.39;100.00;95810.91;10492757;28;2044;-75
2022/11/09 20:10:16;;;;;;;;;;;;;;;10.37;100.00;95813.88;10492782;28;2008;-74
2022/11/09 20:15:19;;;;;;;;;;;;;;;10.36;100.00;95809.56;10493160;28;2057;-75
2022/11/09 20:20:22;;;;;;;;;;;;;;;10.35;100.00;95812.53;10508577;28;2209;-75
2022/11/09 20:25:25;;;;;;;;;;;;;;;10.41;100.00;95819.50;10492324;28;2196;-74
2022/11/09 20:30:29;;;;;;;;;;;;;;;10.37;100.00;95813.88;10492794;28;1986;-75
2022/11/09 20:35:32;;;;;;;;;;;;;;;10.26;100.00;95826.50;10490271;28;2153;-75
2022/11/09 20:40:35;;;;;;;;;;;;;;;10.26;100.00;95823.03;10489440;28;2187;-73
2022/11/09 20:45:39;;;;;;;;;;;;;;;10.28;100.00;95832.41;10489242;28;1968;-74
2022/11/09 20:50:42;;;;;;;;;;;;;;;10.33;100.00;95834.28;10489522;28;1993;-75
2022/11/09 20:55:45;;;;;;;;;;;;;;;10.24;100.00;95847.47;10493218;28;2008;-73
2022/11/09 21:00:53;;;;;;;;;;;;;;;10.31;100.00;95846.38;10486104;28;2051;-74
2022/11/09 21:05:56;;;;;;;;;;;;;;;10.34;100.00;95851.22;10490886;28;2094;-75
2022/11/09 21:11:01;;;;;;;;;;;;;;;10.25;100.00;95870.56;10489878;28;2082;-74
2022/11/09 21:16:05;;;;;;;;;;;;;;;10.28;100.00;95870.03;10486119;28;2063;-74
2022/11/09 21:21:08;;;;;;;;;;;;;;;10.25;100.00;95870.56;10489259;28;2359;-74
2022/11/09 21:31:33;;;;;;;;;;;;;;;10.21;100.00;95880.22;10490012;28;2023;-74
2022/11/09 21:36:36;;;;;;;;;;;;;;;10.21;100.00;95890.94;10490690;28;2026;-74
2022/11/09 21:41:40;;;;;;;;;;;;;;;10.24;100.00;95889.63;10489629;28;2066;-75
2022/11/09 21:46:44;;;;;;;;;;;;;;;10.24;100.00;95895.84;10494129;28;2017;-76
2022/11/09 21:51:47;;;;;;;;;;;;;;;10.15;100.00;95897.41;10492493;28;2034;-74
2022/11/09 21:56:50;;;;;;;;;;;;;;;10.18;100.00;95907.63;10489630;28;2076;-77
2022/11/09 22:01:53;;;;;;;;;;;;;;;10.17;100.00;95911.34;10501298;28;1977;-74
2022/11/09 22:06:56;;;;;;;;;;;;;;;10.20;100.00;95918.91;10503225;28;2085;-74
2022/11/09 22:17:21;;;;;;;;;;;;;;;10.17;100.00;95926.66;10504324;28;2152;-78
2022/11/09 22:22:24;;;;;;;;;;;;;;;10.10;100.00;95932.31;10510246;28;2071;-76
2022/11/09 22:27:27;;;;;;;;;;;;;;;10.08;100.00;95939.03;10504693;28;2021;-76
2022/11/09 22:32:30;;;;;;;;;;;;;;;10.01;100.00;95947.34;10501694;28;2093;-73
2022/11/09 22:37:34;;;;;;;;;;;;;;;10.00;100.00;95953.78;10503289;28;2053;-74
2022/11/09 22:42:37;;;;;;;;;;;;;;;10.00;100.00;95965.34;10502252;28;2016;-73
2022/11/09 22:47:40;;;;;;;;;;;;;;;9.93;100.00;95969.34;10500531;28;2037;-74
2022/11/09 22:52:43;;;;;;;;;;;;;;;9.96;100.00;95974.19;10509119;28;1988;-73
2022/11/09 22:57:46;;;;;;;;;;;;;;;9.95;100.00;95978.75;10503107;28;1979;-75
2022/11/09 23:02:49;;;;;;;;;;;;;;;9.85;100.00;95976.00;10502047;28;2060;-72
2022/11/09 23:07:53;;;;;;;;;;;;;;;9.90;100.00;95980.59;10500495;28;2061;-73
2022/11/09 23:12:56;;;;;;;;;;;;;;;9.88;100.00;95983.56;10493306;28;2230;-75
2022/11/09 23:23:20;;;;;;;;;;;;;;;9.81;100.00;95985.69;10497360;28;2352;-73
2022/11/09 23:28:29;;;;;;;;;;;;;;;9.81;100.00;95988.38;10494812;28;2142;-74
2022/11/09 23:33:33;;;;;;;;;;;;;;;9.86;100.00;95993.75;10495507;28;2031;-75
2022/11/09 23:38:36;;;;;;;;;;;;;;;9.83;100.00;95999.66;10493763;28;2054;-73
2022/11/09 23:43:39;;;;;;;;;;;;;;;9.84;100.00;95997.75;10491960;28;1963;-74
2022/11/09 23:48:48;;;;;;;;;;;;;;;9.83;100.00;95999.66;10492415;28;2024;-75
2022/11/09 23:53:51;;;;;;;;;;;;;;;9.79;100.00;96011.16;10495424;28;1984;-74
2022/11/09 23:58:55;;;;;;;;;;;;;;;9.86;100.00;96009.03;10488037;28;2029;-74
